sensor_id;sensor_type;location;lat;lon;timestamp;P1;durP1;ratioP1;P2;durP2;ratioP2
64033;SDS011;50280;49.864;8.638;2022-11-28T00:01:48;5.35;;;3.65;;
64033;SDS011;50280;49.864;8.638;2022-11-28T00:04:21;6.18;;;3.95;;
64033;SDS011;50280;49.864;8.638;2022-11-28T00:06:53;7.50;;;3.83;;
64033;SDS011;50280;49.864;8.638;2022-11-28T00:09:26;5.97;;;3.70;;
64033;SDS011;50280;49.864;8.638;2022-11-28T00:11:58;6.13;;;3.85;;
64033;SDS011;50280;49.864;8.638;2022-11-28T00:14:32;5.85;;;3.80;;
64033;SDS011;50280;49.864;8.638;2022-11-28T00:17:04;6.28;;;3.63;;
64033;SDS011;50280;49.864;8.638;2022-11-28T00:19:37;5.20;;;3.90;;
64033;SDS011;50280;49.864;8.638;2022-11-28T00:22:09;5.97;;;3.53;;
64033;SDS011;50280;49.864;8.638;2022-11-28T00:24:42;5.00;;;3.75;;
64033;SDS011;50280;49.864;8.638;2022-11-28T00:27:14;5.75;;;3.85;;
64033;SDS011;50280;49.864;8.638;2022-11-28T00:29:48;5.53;;;3.72;;
64033;SDS011;50280;49.864;8.638;2022-11-28T00:32:20;5.60;;;3.65;;
64033;SDS011;50280;49.864;8.638;2022-11-28T00:34:53;4.50;;;3.33;;
64033;SDS011;50280;49.864;8.638;2022-11-28T00:37:25;5.35;;;3.42;;
64033;SDS011;50280;49.864;8.638;2022-11-28T00:39:57;5.75;;;3.60;;
64033;SDS011;50280;49.864;8.638;2022-11-28T00:42:30;5.15;;;3.72;;
64033;SDS011;50280;49.864;8.638;2022-11-28T00:45:04;5.57;;;3.85;;
64033;SDS011;50280;49.864;8.638;2022-11-28T00:47:38;6.75;;;4.00;;
64033;SDS011;50280;49.864;8.638;2022-11-28T00:50:10;6.07;;;4.03;;
64033;SDS011;50280;49.864;8.638;2022-11-28T00:52:43;5.97;;;4.05;;
64033;SDS011;50280;49.864;8.638;2022-11-28T00:55:15;6.07;;;4.10;;
64033;SDS011;50280;49.864;8.638;2022-11-28T00:57:48;6.38;;;3.50;;
64033;SDS011;50280;49.864;8.638;2022-11-28T01:00:21;6.60;;;3.92;;
64033;SDS011;50280;49.864;8.638;2022-11-28T01:02:54;6.22;;;3.95;;
64033;SDS011;50280;49.864;8.638;2022-11-28T01:05:27;5.78;;;4.18;;
64033;SDS011;50280;49.864;8.638;2022-11-28T01:07:59;6.65;;;4.20;;
64033;SDS011;50280;49.864;8.638;2022-11-28T01:10:32;5.95;;;4.15;;
64033;SDS011;50280;49.864;8.638;2022-11-28T01:13:04;5.80;;;3.80;;
64033;SDS011;50280;49.864;8.638;2022-11-28T01:15:40;7.18;;;3.83;;
64033;SDS011;50280;49.864;8.638;2022-11-28T01:18:13;6.28;;;4.00;;
64033;SDS011;50280;49.864;8.638;2022-11-28T01:20:46;6.30;;;4.30;;
64033;SDS011;50280;49.864;8.638;2022-11-28T01:23:18;6.32;;;3.90;;
64033;SDS011;50280;49.864;8.638;2022-11-28T01:25:51;6.95;;;4.18;;
64033;SDS011;50280;49.864;8.638;2022-11-28T01:28:23;6.20;;;3.95;;
64033;SDS011;50280;49.864;8.638;2022-11-28T01:31:00;6.60;;;4.13;;
64033;SDS011;50280;49.864;8.638;2022-11-28T01:33:35;6.72;;;4.30;;
64033;SDS011;50280;49.864;8.638;2022-11-28T01:36:09;7.15;;;4.30;;
64033;SDS011;50280;49.864;8.638;2022-11-28T01:38:44;5.35;;;3.78;;
64033;SDS011;50280;49.864;8.638;2022-11-28T01:41:19;5.88;;;4.20;;
64033;SDS011;50280;49.864;8.638;2022-11-28T01:44:05;6.88;;;3.90;;
64033;SDS011;50280;49.864;8.638;2022-11-28T01:47:20;5.85;;;3.55;;
64033;SDS011;50280;49.864;8.638;2022-11-28T01:50:01;5.03;;;3.80;;
64033;SDS011;50280;49.864;8.638;2022-11-28T01:52:39;5.60;;;3.70;;
64033;SDS011;50280;49.864;8.638;2022-11-28T01:55:19;4.78;;;3.58;;
64033;SDS011;50280;49.864;8.638;2022-11-28T01:57:59;5.28;;;3.65;;
64033;SDS011;50280;49.864;8.638;2022-11-28T02:00:32;6.80;;;4.13;;
64033;SDS011;50280;49.864;8.638;2022-11-28T02:03:07;6.00;;;3.97;;
64033;SDS011;50280;49.864;8.638;2022-11-28T02:05:48;6.50;;;4.00;;
64033;SDS011;50280;49.864;8.638;2022-11-28T02:08:22;6.15;;;4.00;;
64033;SDS011;50280;49.864;8.638;2022-11-28T02:11:04;6.80;;;3.90;;
64033;SDS011;50280;49.864;8.638;2022-11-28T02:14:20;4.93;;;3.70;;
64033;SDS011;50280;49.864;8.638;2022-11-28T02:17:32;6.25;;;3.72;;
64033;SDS011;50280;49.864;8.638;2022-11-28T02:20:39;6.80;;;3.67;;
64033;SDS011;50280;49.864;8.638;2022-11-28T02:23:52;6.53;;;3.97;;
64033;SDS011;50280;49.864;8.638;2022-11-28T02:27:41;6.05;;;4.00;;
64033;SDS011;50280;49.864;8.638;2022-11-28T02:31:10;6.55;;;4.10;;
64033;SDS011;50280;49.864;8.638;2022-11-28T02:34:16;6.57;;;4.20;;
64033;SDS011;50280;49.864;8.638;2022-11-28T02:37:02;5.70;;;4.35;;
64033;SDS011;50280;49.864;8.638;2022-11-28T02:39:46;8.07;;;4.15;;
64033;SDS011;50280;49.864;8.638;2022-11-28T02:42:40;6.40;;;3.92;;
64033;SDS011;50280;49.864;8.638;2022-11-28T02:45:35;6.65;;;4.80;;
64033;SDS011;50280;49.864;8.638;2022-11-28T02:48:23;10.50;;;4.93;;
64033;SDS011;50280;49.864;8.638;2022-11-28T02:51:11;7.00;;;4.40;;
64033;SDS011;50280;49.864;8.638;2022-11-28T02:53:55;5.95;;;4.28;;
64033;SDS011;50280;49.864;8.638;2022-11-28T02:56:32;7.43;;;4.50;;
64033;SDS011;50280;49.864;8.638;2022-11-28T02:59:16;6.80;;;4.18;;
64033;SDS011;50280;49.864;8.638;2022-11-28T03:02:04;6.13;;;4.25;;
64033;SDS011;50280;49.864;8.638;2022-11-28T03:04:53;7.05;;;4.18;;
64033;SDS011;50280;49.864;8.638;2022-11-28T03:07:49;6.18;;;4.13;;
64033;SDS011;50280;49.864;8.638;2022-11-28T03:10:44;7.13;;;3.85;;
64033;SDS011;50280;49.864;8.638;2022-11-28T03:13:31;6.28;;;4.07;;
64033;SDS011;50280;49.864;8.638;2022-11-28T03:16:22;8.37;;;4.53;;
64033;SDS011;50280;49.864;8.638;2022-11-28T03:19:02;7.13;;;4.43;;
64033;SDS011;50280;49.864;8.638;2022-11-28T03:21:49;6.80;;;4.28;;
64033;SDS011;50280;49.864;8.638;2022-11-28T03:24:40;6.72;;;4.45;;
64033;SDS011;50280;49.864;8.638;2022-11-28T03:27:22;6.57;;;4.20;;
64033;SDS011;50280;49.864;8.638;2022-11-28T03:30:07;5.80;;;4.20;;
64033;SDS011;50280;49.864;8.638;2022-11-28T03:32:50;6.75;;;4.47;;
64033;SDS011;50280;49.864;8.638;2022-11-28T03:35:31;7.18;;;4.75;;
64033;SDS011;50280;49.864;8.638;2022-11-28T03:38:15;6.38;;;4.13;;
64033;SDS011;50280;49.864;8.638;2022-11-28T03:41:00;7.90;;;4.95;;
64033;SDS011;50280;49.864;8.638;2022-11-28T03:43:41;7.55;;;4.70;;
64033;SDS011;50280;49.864;8.638;2022-11-28T03:46:24;8.52;;;4.75;;
64033;SDS011;50280;49.864;8.638;2022-11-28T03:49:07;6.53;;;4.70;;
64033;SDS011;50280;49.864;8.638;2022-11-28T03:51:51;7.13;;;4.70;;
64033;SDS011;50280;49.864;8.638;2022-11-28T03:54:32;6.47;;;4.70;;
64033;SDS011;50280;49.864;8.638;2022-11-28T03:57:20;7.93;;;5.18;;
64033;SDS011;50280;49.864;8.638;2022-11-28T04:00:04;7.47;;;5.10;;
64033;SDS011;50280;49.864;8.638;2022-11-28T04:02:45;7.40;;;4.80;;
64033;SDS011;50280;49.864;8.638;2022-11-28T04:05:33;9.93;;;5.28;;
64033;SDS011;50280;49.864;8.638;2022-11-28T04:08:19;7.72;;;5.13;;
64033;SDS011;50280;49.864;8.638;2022-11-28T04:11:02;8.02;;;5.20;;
64033;SDS011;50280;49.864;8.638;2022-11-28T04:13:46;6.93;;;4.82;;
64033;SDS011;50280;49.864;8.638;2022-11-28T04:16:30;7.53;;;5.00;;
64033;SDS011;50280;49.864;8.638;2022-11-28T04:19:11;8.23;;;5.68;;
64033;SDS011;50280;49.864;8.638;2022-11-28T04:21:58;8.05;;;5.28;;
64033;SDS011;50280;49.864;8.638;2022-11-28T04:24:39;9.38;;;5.22;;
64033;SDS011;50280;49.864;8.638;2022-11-28T04:27:23;8.57;;;5.55;;
64033;SDS011;50280;49.864;8.638;2022-11-28T04:30:08;8.15;;;5.72;;
64033;SDS011;50280;49.864;8.638;2022-11-28T04:32:45;8.07;;;5.35;;
64033;SDS011;50280;49.864;8.638;2022-11-28T04:35:27;8.48;;;4.97;;
64033;SDS011;50280;49.864;8.638;2022-11-28T04:38:08;7.93;;;5.45;;
64033;SDS011;50280;49.864;8.638;2022-11-28T04:40:46;7.25;;;5.10;;
64033;SDS011;50280;49.864;8.638;2022-11-28T04:43:27;8.65;;;5.55;;
64033;SDS011;50280;49.864;8.638;2022-11-28T04:46:08;8.17;;;5.20;;
64033;SDS011;50280;49.864;8.638;2022-11-28T04:48:46;7.90;;;5.15;;
64033;SDS011;50280;49.864;8.638;2022-11-28T04:51:19;7.32;;;4.90;;
64033;SDS011;50280;49.864;8.638;2022-11-28T04:54:03;7.80;;;5.18;;
64033;SDS011;50280;49.864;8.638;2022-11-28T04:56:50;7.68;;;5.38;;
64033;SDS011;50280;49.864;8.638;2022-11-28T04:59:33;8.52;;;5.25;;
64033;SDS011;50280;49.864;8.638;2022-11-28T05:02:09;8.20;;;5.32;;
64033;SDS011;50280;49.864;8.638;2022-11-28T05:04:47;7.60;;;5.15;;
64033;SDS011;50280;49.864;8.638;2022-11-28T05:07:20;7.90;;;5.63;;
64033;SDS011;50280;49.864;8.638;2022-11-28T05:09:53;8.15;;;5.53;;
64033;SDS011;50280;49.864;8.638;2022-11-28T05:12:25;8.18;;;5.43;;
64033;SDS011;50280;49.864;8.638;2022-11-28T05:14:58;9.05;;;5.80;;
64033;SDS011;50280;49.864;8.638;2022-11-28T05:17:31;8.23;;;5.10;;
64033;SDS011;50280;49.864;8.638;2022-11-28T05:20:05;8.38;;;5.50;;
64033;SDS011;50280;49.864;8.638;2022-11-28T05:22:39;7.68;;;5.22;;
64033;SDS011;50280;49.864;8.638;2022-11-28T05:25:11;8.30;;;5.28;;
64033;SDS011;50280;49.864;8.638;2022-11-28T05:27:44;7.22;;;4.68;;
64033;SDS011;50280;49.864;8.638;2022-11-28T05:30:16;7.57;;;5.25;;
64033;SDS011;50280;49.864;8.638;2022-11-28T05:32:50;7.57;;;5.15;;
64033;SDS011;50280;49.864;8.638;2022-11-28T05:35:22;9.52;;;5.70;;
64033;SDS011;50280;49.864;8.638;2022-11-28T05:37:55;8.93;;;5.55;;
64033;SDS011;50280;49.864;8.638;2022-11-28T05:40:27;8.70;;;5.65;;
64033;SDS011;50280;49.864;8.638;2022-11-28T05:42:59;8.02;;;5.05;;
64033;SDS011;50280;49.864;8.638;2022-11-28T05:45:32;8.23;;;5.18;;
64033;SDS011;50280;49.864;8.638;2022-11-28T05:48:06;10.38;;;5.20;;
64033;SDS011;50280;49.864;8.638;2022-11-28T05:50:38;7.30;;;5.05;;
64033;SDS011;50280;49.864;8.638;2022-11-28T05:53:12;8.35;;;4.97;;
64033;SDS011;50280;49.864;8.638;2022-11-28T05:55:44;9.68;;;5.35;;
64033;SDS011;50280;49.864;8.638;2022-11-28T05:58:18;8.55;;;5.10;;
64033;SDS011;50280;49.864;8.638;2022-11-28T06:00:50;7.75;;;5.22;;
64033;SDS011;50280;49.864;8.638;2022-11-28T06:03:24;8.23;;;5.65;;
64033;SDS011;50280;49.864;8.638;2022-11-28T06:05:57;8.82;;;5.32;;
64033;SDS011;50280;49.864;8.638;2022-11-28T06:08:29;7.75;;;5.70;;
64033;SDS011;50280;49.864;8.638;2022-11-28T06:11:01;7.60;;;4.82;;
64033;SDS011;50280;49.864;8.638;2022-11-28T06:13:34;7.30;;;4.85;;
64033;SDS011;50280;49.864;8.638;2022-11-28T06:16:08;8.68;;;5.55;;
64033;SDS011;50280;49.864;8.638;2022-11-28T06:18:45;7.35;;;4.57;;
64033;SDS011;50280;49.864;8.638;2022-11-28T06:21:18;7.93;;;5.10;;
64033;SDS011;50280;49.864;8.638;2022-11-28T06:23:51;10.45;;;6.32;;
64033;SDS011;50280;49.864;8.638;2022-11-28T06:26:25;8.98;;;5.55;;
64033;SDS011;50280;49.864;8.638;2022-11-28T06:28:59;9.02;;;5.55;;
64033;SDS011;50280;49.864;8.638;2022-11-28T06:31:32;9.73;;;5.90;;
64033;SDS011;50280;49.864;8.638;2022-11-28T06:34:05;9.07;;;6.15;;
64033;SDS011;50280;49.864;8.638;2022-11-28T06:36:38;9.65;;;6.13;;
64033;SDS011;50280;49.864;8.638;2022-11-28T06:39:11;8.90;;;5.85;;
64033;SDS011;50280;49.864;8.638;2022-11-28T06:41:45;8.48;;;5.65;;
64033;SDS011;50280;49.864;8.638;2022-11-28T06:44:17;8.60;;;5.30;;
64033;SDS011;50280;49.864;8.638;2022-11-28T06:46:50;9.15;;;5.20;;
64033;SDS011;50280;49.864;8.638;2022-11-28T06:49:24;8.10;;;5.00;;
64033;SDS011;50280;49.864;8.638;2022-11-28T06:51:56;9.98;;;5.40;;
64033;SDS011;50280;49.864;8.638;2022-11-28T06:54:28;8.07;;;5.45;;
64033;SDS011;50280;49.864;8.638;2022-11-28T06:57:01;7.05;;;4.75;;
64033;SDS011;50280;49.864;8.638;2022-11-28T06:59:33;7.28;;;4.90;;
64033;SDS011;50280;49.864;8.638;2022-11-28T07:02:06;6.68;;;4.72;;
64033;SDS011;50280;49.864;8.638;2022-11-28T07:04:42;9.18;;;5.22;;
64033;SDS011;50280;49.864;8.638;2022-11-28T07:07:14;8.95;;;5.47;;
64033;SDS011;50280;49.864;8.638;2022-11-28T07:09:47;8.05;;;5.78;;
64033;SDS011;50280;49.864;8.638;2022-11-28T07:12:21;10.73;;;5.50;;
64033;SDS011;50280;49.864;8.638;2022-11-28T07:14:53;9.15;;;5.47;;
64033;SDS011;50280;49.864;8.638;2022-11-28T07:17:26;7.50;;;5.13;;
64033;SDS011;50280;49.864;8.638;2022-11-28T07:19:59;8.45;;;5.78;;
64033;SDS011;50280;49.864;8.638;2022-11-28T07:22:32;8.77;;;5.80;;
64033;SDS011;50280;49.864;8.638;2022-11-28T07:25:05;8.68;;;5.82;;
64033;SDS011;50280;49.864;8.638;2022-11-28T07:27:38;8.38;;;5.65;;
64033;SDS011;50280;49.864;8.638;2022-11-28T07:30:11;11.27;;;5.43;;
64033;SDS011;50280;49.864;8.638;2022-11-28T07:32:45;10.93;;;5.65;;
64033;SDS011;50280;49.864;8.638;2022-11-28T07:35:18;9.02;;;5.68;;
64033;SDS011;50280;49.864;8.638;2022-11-28T07:37:51;10.90;;;5.88;;
64033;SDS011;50280;49.864;8.638;2022-11-28T07:40:23;10.10;;;6.25;;
64033;SDS011;50280;49.864;8.638;2022-11-28T07:42:56;9.48;;;5.43;;
64033;SDS011;50280;49.864;8.638;2022-11-28T07:45:29;10.40;;;6.25;;
64033;SDS011;50280;49.864;8.638;2022-11-28T07:48:01;10.18;;;6.43;;
64033;SDS011;50280;49.864;8.638;2022-11-28T07:50:35;10.82;;;6.30;;
64033;SDS011;50280;49.864;8.638;2022-11-28T07:53:09;11.52;;;6.35;;
64033;SDS011;50280;49.864;8.638;2022-11-28T07:55:42;10.55;;;6.47;;
64033;SDS011;50280;49.864;8.638;2022-11-28T07:58:14;11.13;;;7.13;;
64033;SDS011;50280;49.864;8.638;2022-11-28T08:00:47;15.05;;;8.90;;
64033;SDS011;50280;49.864;8.638;2022-11-28T08:03:19;11.88;;;7.00;;
64033;SDS011;50280;49.864;8.638;2022-11-28T08:05:53;9.63;;;6.88;;
64033;SDS011;50280;49.864;8.638;2022-11-28T08:08:31;11.25;;;6.47;;
64033;SDS011;50280;49.864;8.638;2022-11-28T08:11:06;11.90;;;7.57;;
64033;SDS011;50280;49.864;8.638;2022-11-28T08:13:41;12.88;;;7.15;;
64033;SDS011;50280;49.864;8.638;2022-11-28T08:16:15;10.60;;;7.13;;
64033;SDS011;50280;49.864;8.638;2022-11-28T08:18:51;13.23;;;7.40;;
64033;SDS011;50280;49.864;8.638;2022-11-28T08:21:27;11.18;;;7.07;;
64033;SDS011;50280;49.864;8.638;2022-11-28T08:24:03;12.23;;;7.95;;
64033;SDS011;50280;49.864;8.638;2022-11-28T08:26:37;11.60;;;7.63;;
64033;SDS011;50280;49.864;8.638;2022-11-28T08:29:10;13.70;;;8.38;;
64033;SDS011;50280;49.864;8.638;2022-11-28T08:31:43;20.45;;;10.70;;
64033;SDS011;50280;49.864;8.638;2022-11-28T08:34:15;11.63;;;7.68;;
64033;SDS011;50280;49.864;8.638;2022-11-28T08:36:49;12.10;;;8.32;;
64033;SDS011;50280;49.864;8.638;2022-11-28T08:39:21;13.20;;;8.32;;
64033;SDS011;50280;49.864;8.638;2022-11-28T08:41:54;14.18;;;8.32;;
64033;SDS011;50280;49.864;8.638;2022-11-28T08:44:27;14.57;;;8.43;;
64033;SDS011;50280;49.864;8.638;2022-11-28T08:47:00;13.02;;;8.38;;
64033;SDS011;50280;49.864;8.638;2022-11-28T08:49:34;11.93;;;8.07;;
64033;SDS011;50280;49.864;8.638;2022-11-28T08:52:09;12.70;;;7.68;;
64033;SDS011;50280;49.864;8.638;2022-11-28T08:54:41;12.40;;;8.02;;
64033;SDS011;50280;49.864;8.638;2022-11-28T08:57:14;13.23;;;8.25;;
64033;SDS011;50280;49.864;8.638;2022-11-28T08:59:46;12.95;;;8.05;;
64033;SDS011;50280;49.864;8.638;2022-11-28T09:02:19;11.18;;;7.40;;
64033;SDS011;50280;49.864;8.638;2022-11-28T09:04:51;12.45;;;8.25;;
64033;SDS011;50280;49.864;8.638;2022-11-28T09:07:25;14.82;;;7.82;;
64033;SDS011;50280;49.864;8.638;2022-11-28T09:09:57;12.10;;;7.93;;
64033;SDS011;50280;49.864;8.638;2022-11-28T09:12:29;15.05;;;8.27;;
64033;SDS011;50280;49.864;8.638;2022-11-28T09:15:02;14.65;;;7.55;;
64033;SDS011;50280;49.864;8.638;2022-11-28T09:17:36;13.68;;;8.48;;
64033;SDS011;50280;49.864;8.638;2022-11-28T09:20:09;12.25;;;8.18;;
64033;SDS011;50280;49.864;8.638;2022-11-28T09:22:44;16.30;;;8.32;;
64033;SDS011;50280;49.864;8.638;2022-11-28T09:25:16;12.80;;;7.90;;
64033;SDS011;50280;49.864;8.638;2022-11-28T09:27:49;10.68;;;7.78;;
64033;SDS011;50280;49.864;8.638;2022-11-28T09:30:21;13.73;;;8.10;;
64033;SDS011;50280;49.864;8.638;2022-11-28T09:32:54;14.05;;;7.45;;
64033;SDS011;50280;49.864;8.638;2022-11-28T09:35:26;12.30;;;8.00;;
64033;SDS011;50280;49.864;8.638;2022-11-28T09:38:00;11.10;;;7.75;;
64033;SDS011;50280;49.864;8.638;2022-11-28T09:40:34;13.35;;;8.10;;
64033;SDS011;50280;49.864;8.638;2022-11-28T09:43:11;11.25;;;7.90;;
64033;SDS011;50280;49.864;8.638;2022-11-28T09:45:54;13.30;;;8.23;;
64033;SDS011;50280;49.864;8.638;2022-11-28T09:48:32;12.40;;;8.18;;
64033;SDS011;50280;49.864;8.638;2022-11-28T09:51:14;13.40;;;8.20;;
64033;SDS011;50280;49.864;8.638;2022-11-28T09:54:05;11.77;;;8.20;;
64033;SDS011;50280;49.864;8.638;2022-11-28T09:56:50;15.65;;;7.90;;
64033;SDS011;50280;49.864;8.638;2022-11-28T09:59:24;13.10;;;7.93;;
64033;SDS011;50280;49.864;8.638;2022-11-28T10:02:02;14.68;;;8.90;;
64033;SDS011;50280;49.864;8.638;2022-11-28T10:04:58;13.02;;;8.15;;
64033;SDS011;50280;49.864;8.638;2022-11-28T10:07:53;12.88;;;8.48;;
64033;SDS011;50280;49.864;8.638;2022-11-28T10:10:56;13.98;;;8.93;;
64033;SDS011;50280;49.864;8.638;2022-11-28T10:13:41;13.70;;;9.07;;
64033;SDS011;50280;49.864;8.638;2022-11-28T10:16:34;13.43;;;8.30;;
64033;SDS011;50280;49.864;8.638;2022-11-28T10:19:27;14.38;;;8.60;;
64033;SDS011;50280;49.864;8.638;2022-11-28T10:22:12;12.95;;;8.48;;
64033;SDS011;50280;49.864;8.638;2022-11-28T10:24:56;12.48;;;8.27;;
64033;SDS011;50280;49.864;8.638;2022-11-28T10:27:40;14.35;;;8.38;;
64033;SDS011;50280;49.864;8.638;2022-11-28T10:30:20;15.32;;;8.95;;
64033;SDS011;50280;49.864;8.638;2022-11-28T10:32:58;13.75;;;8.20;;
64033;SDS011;50280;49.864;8.638;2022-11-28T10:35:43;13.18;;;8.00;;
64033;SDS011;50280;49.864;8.638;2022-11-28T10:38:25;11.20;;;8.55;;
64033;SDS011;50280;49.864;8.638;2022-11-28T10:41:02;13.60;;;8.60;;
64033;SDS011;50280;49.864;8.638;2022-11-28T10:43:50;12.82;;;8.18;;
64033;SDS011;50280;49.864;8.638;2022-11-28T10:46:39;13.75;;;8.70;;
64033;SDS011;50280;49.864;8.638;2022-11-28T10:49:33;13.85;;;8.88;;
64033;SDS011;50280;49.864;8.638;2022-11-28T10:52:25;14.05;;;9.43;;
64033;SDS011;50280;49.864;8.638;2022-11-28T10:55:21;14.93;;;8.57;;
64033;SDS011;50280;49.864;8.638;2022-11-28T10:58:13;13.23;;;8.35;;
64033;SDS011;50280;49.864;8.638;2022-11-28T11:00:57;15.07;;;8.35;;
64033;SDS011;50280;49.864;8.638;2022-11-28T11:03:32;13.30;;;8.55;;
64033;SDS011;50280;49.864;8.638;2022-11-28T11:06:09;13.30;;;8.63;;
64033;SDS011;50280;49.864;8.638;2022-11-28T11:08:43;12.13;;;8.57;;
64033;SDS011;50280;49.864;8.638;2022-11-28T11:11:21;12.05;;;9.02;;
64033;SDS011;50280;49.864;8.638;2022-11-28T11:14:01;17.10;;;9.63;;
64033;SDS011;50280;49.864;8.638;2022-11-28T11:16:48;13.57;;;9.18;;
64033;SDS011;50280;49.864;8.638;2022-11-28T11:19:25;12.80;;;8.90;;
64033;SDS011;50280;49.864;8.638;2022-11-28T11:22:03;13.68;;;8.88;;
64033;SDS011;50280;49.864;8.638;2022-11-28T11:25:05;15.07;;;9.57;;
64033;SDS011;50280;49.864;8.638;2022-11-28T11:27:47;14.30;;;8.85;;
64033;SDS011;50280;49.864;8.638;2022-11-28T11:30:24;13.70;;;9.15;;
64033;SDS011;50280;49.864;8.638;2022-11-28T11:33:02;13.70;;;9.05;;
64033;SDS011;50280;49.864;8.638;2022-11-28T11:35:44;13.38;;;8.32;;
64033;SDS011;50280;49.864;8.638;2022-11-28T11:38:25;14.15;;;9.10;;
64033;SDS011;50280;49.864;8.638;2022-11-28T11:41:18;12.93;;;8.65;;
64033;SDS011;50280;49.864;8.638;2022-11-28T11:47:04;12.90;;;8.73;;
64033;SDS011;50280;49.864;8.638;2022-11-28T11:49:41;12.90;;;8.98;;
64033;SDS011;50280;49.864;8.638;2022-11-28T11:52:17;15.10;;;8.43;;
64033;SDS011;50280;49.864;8.638;2022-11-28T11:54:56;13.57;;;8.93;;
64033;SDS011;50280;49.864;8.638;2022-11-28T11:57:36;13.88;;;8.77;;
64033;SDS011;50280;49.864;8.638;2022-11-28T12:00:16;14.18;;;9.70;;
64033;SDS011;50280;49.864;8.638;2022-11-28T12:02:53;16.13;;;10.60;;
64033;SDS011;50280;49.864;8.638;2022-11-28T12:05:36;12.82;;;8.70;;
64033;SDS011;50280;49.864;8.638;2022-11-28T12:08:24;15.27;;;8.85;;
64033;SDS011;50280;49.864;8.638;2022-11-28T12:11:11;11.75;;;8.55;;
64033;SDS011;50280;49.864;8.638;2022-11-28T12:14:03;11.35;;;8.23;;
64033;SDS011;50280;49.864;8.638;2022-11-28T12:17:05;13.88;;;8.57;;
64033;SDS011;50280;49.864;8.638;2022-11-28T12:23:42;16.70;;;10.57;;
64033;SDS011;50280;49.864;8.638;2022-11-28T12:26:41;11.18;;;7.85;;
64033;SDS011;50280;49.864;8.638;2022-11-28T12:29:23;16.38;;;9.68;;
64033;SDS011;50280;49.864;8.638;2022-11-28T12:32:23;15.60;;;9.20;;
64033;SDS011;50280;49.864;8.638;2022-11-28T12:35:18;18.45;;;11.10;;
64033;SDS011;50280;49.864;8.638;2022-11-28T12:38:12;15.52;;;9.27;;
64033;SDS011;50280;49.864;8.638;2022-11-28T12:41:13;15.90;;;10.25;;
64033;SDS011;50280;49.864;8.638;2022-11-28T12:44:16;13.75;;;8.85;;
64033;SDS011;50280;49.864;8.638;2022-11-28T12:47:09;15.50;;;9.63;;
64033;SDS011;50280;49.864;8.638;2022-11-28T12:50:08;14.10;;;8.90;;
64033;SDS011;50280;49.864;8.638;2022-11-28T12:53:08;18.05;;;9.35;;
64033;SDS011;50280;49.864;8.638;2022-11-28T12:56:17;15.77;;;10.30;;
64033;SDS011;50280;49.864;8.638;2022-11-28T12:59:19;19.33;;;12.68;;
64033;SDS011;50280;49.864;8.638;2022-11-28T13:02:13;21.52;;;12.75;;
64033;SDS011;50280;49.864;8.638;2022-11-28T13:08:39;16.50;;;9.77;;
64033;SDS011;50280;49.864;8.638;2022-11-28T13:11:33;16.95;;;10.13;;
64033;SDS011;50280;49.864;8.638;2022-11-28T13:14:32;20.05;;;10.32;;
64033;SDS011;50280;49.864;8.638;2022-11-28T13:17:25;18.05;;;10.13;;
64033;SDS011;50280;49.864;8.638;2022-11-28T13:20:17;15.57;;;10.15;;
64033;SDS011;50280;49.864;8.638;2022-11-28T13:23:03;16.65;;;10.00;;
64033;SDS011;50280;49.864;8.638;2022-11-28T13:25:54;14.10;;;9.73;;
64033;SDS011;50280;49.864;8.638;2022-11-28T13:28:41;13.18;;;8.52;;
64033;SDS011;50280;49.864;8.638;2022-11-28T13:31:26;16.63;;;10.90;;
64033;SDS011;50280;49.864;8.638;2022-11-28T13:34:12;16.10;;;9.68;;
64033;SDS011;50280;49.864;8.638;2022-11-28T13:36:51;15.32;;;9.70;;
64033;SDS011;50280;49.864;8.638;2022-11-28T13:39:37;17.33;;;9.20;;
64033;SDS011;50280;49.864;8.638;2022-11-28T13:42:25;17.65;;;9.75;;
64033;SDS011;50280;49.864;8.638;2022-11-28T13:45:18;17.52;;;10.80;;
64033;SDS011;50280;49.864;8.638;2022-11-28T13:47:57;15.70;;;9.93;;
64033;SDS011;50280;49.864;8.638;2022-11-28T13:50:31;14.48;;;9.48;;
64033;SDS011;50280;49.864;8.638;2022-11-28T13:53:18;14.02;;;8.60;;
64033;SDS011;50280;49.864;8.638;2022-11-28T13:58:57;17.08;;;9.57;;
64033;SDS011;50280;49.864;8.638;2022-11-28T14:01:41;15.85;;;10.10;;
64033;SDS011;50280;49.864;8.638;2022-11-28T14:04:17;14.88;;;9.88;;
64033;SDS011;50280;49.864;8.638;2022-11-28T14:06:50;16.38;;;9.90;;
64033;SDS011;50280;49.864;8.638;2022-11-28T14:09:34;13.68;;;9.07;;
64033;SDS011;50280;49.864;8.638;2022-11-28T14:12:32;15.77;;;10.40;;
64033;SDS011;50280;49.864;8.638;2022-11-28T14:15:28;15.07;;;10.07;;
64033;SDS011;50280;49.864;8.638;2022-11-28T14:18:28;17.23;;;12.80;;
64033;SDS011;50280;49.864;8.638;2022-11-28T14:21:31;20.02;;;11.40;;
64033;SDS011;50280;49.864;8.638;2022-11-28T14:24:32;16.88;;;10.20;;
64033;SDS011;50280;49.864;8.638;2022-11-28T14:27:30;18.10;;;9.73;;
64033;SDS011;50280;49.864;8.638;2022-11-28T14:30:16;15.95;;;10.00;;
64033;SDS011;50280;49.864;8.638;2022-11-28T14:33:05;16.58;;;9.85;;
64033;SDS011;50280;49.864;8.638;2022-11-28T14:36:04;14.73;;;9.63;;
64033;SDS011;50280;49.864;8.638;2022-11-28T14:38:59;16.52;;;9.60;;
64033;SDS011;50280;49.864;8.638;2022-11-28T14:48:17;17.20;;;9.60;;
64033;SDS011;50280;49.864;8.638;2022-11-28T14:51:00;15.35;;;8.98;;
64033;SDS011;50280;49.864;8.638;2022-11-28T14:53:36;13.45;;;9.02;;
64033;SDS011;50280;49.864;8.638;2022-11-28T14:56:20;15.50;;;9.18;;
64033;SDS011;50280;49.864;8.638;2022-11-28T14:58:59;16.08;;;9.88;;
64033;SDS011;50280;49.864;8.638;2022-11-28T15:01:46;13.60;;;8.45;;
64033;SDS011;50280;49.864;8.638;2022-11-28T15:04:40;16.77;;;9.93;;
64033;SDS011;50280;49.864;8.638;2022-11-28T15:07:40;18.70;;;11.52;;
64033;SDS011;50280;49.864;8.638;2022-11-28T15:10:38;17.20;;;9.18;;
64033;SDS011;50280;49.864;8.638;2022-11-28T15:13:25;14.40;;;8.27;;
64033;SDS011;50280;49.864;8.638;2022-11-28T15:16:20;16.02;;;8.70;;
64033;SDS011;50280;49.864;8.638;2022-11-28T15:18:57;15.20;;;9.95;;
64033;SDS011;50280;49.864;8.638;2022-11-28T15:21:42;16.45;;;9.73;;
64033;SDS011;50280;49.864;8.638;2022-11-28T15:24:23;14.48;;;9.20;;
64033;SDS011;50280;49.864;8.638;2022-11-28T15:27:15;16.83;;;9.50;;
64033;SDS011;50280;49.864;8.638;2022-11-28T15:29:56;16.70;;;10.23;;
64033;SDS011;50280;49.864;8.638;2022-11-28T15:32:31;26.63;;;17.23;;
64033;SDS011;50280;49.864;8.638;2022-11-28T15:35:08;18.63;;;11.15;;
64033;SDS011;50280;49.864;8.638;2022-11-28T15:37:47;18.13;;;10.18;;
64033;SDS011;50280;49.864;8.638;2022-11-28T15:40:25;16.70;;;10.13;;
64033;SDS011;50280;49.864;8.638;2022-11-28T15:43:03;18.13;;;10.93;;
64033;SDS011;50280;49.864;8.638;2022-11-28T15:45:36;17.52;;;11.00;;
64033;SDS011;50280;49.864;8.638;2022-11-28T15:48:22;17.48;;;10.18;;
64033;SDS011;50280;49.864;8.638;2022-11-28T15:51:05;18.83;;;10.38;;
64033;SDS011;50280;49.864;8.638;2022-11-28T15:53:39;20.52;;;12.27;;
64033;SDS011;50280;49.864;8.638;2022-11-28T15:56:12;18.25;;;10.85;;
64033;SDS011;50280;49.864;8.638;2022-11-28T15:58:46;19.23;;;11.13;;
64033;SDS011;50280;49.864;8.638;2022-11-28T16:01:20;15.90;;;10.77;;
64033;SDS011;50280;49.864;8.638;2022-11-28T16:03:57;14.30;;;10.32;;
64033;SDS011;50280;49.864;8.638;2022-11-28T16:06:36;20.50;;;11.70;;
64033;SDS011;50280;49.864;8.638;2022-11-28T16:09:22;20.15;;;12.50;;
64033;SDS011;50280;49.864;8.638;2022-11-28T16:12:03;18.48;;;12.75;;
64033;SDS011;50280;49.864;8.638;2022-11-28T16:14:45;17.10;;;11.13;;
64033;SDS011;50280;49.864;8.638;2022-11-28T16:17:18;16.77;;;10.45;;
64033;SDS011;50280;49.864;8.638;2022-11-28T16:19:56;17.87;;;11.07;;